createdAt,value
2023-04-28T00:05:06.319Z,98183.06
2023-04-28T00:07:36.205Z,98172.97
2023-04-28T00:10:05.437Z,98179.47
2023-04-28T00:12:32.775Z,98174.03
2023-04-28T00:17:39.848Z,98162.94
2023-04-28T00:20:06.896Z,98161.94
2023-04-28T00:22:41.112Z,98156.75
2023-04-28T00:25:09.247Z,98148.47
2023-04-28T00:27:36.899Z,98147.81
2023-04-28T00:30:03.401Z,98143.28
2023-04-28T00:32:31.378Z,98140.44
2023-04-28T00:34:57.904Z,98131.34
2023-04-28T00:37:25.688Z,98140.00
2023-04-28T00:39:56.888Z,98131.44
2023-04-28T00:42:25.008Z,98128.03
2023-04-28T00:44:53.765Z,98124.44
2023-04-28T00:47:24.528Z,98132.00
2023-04-28T00:49:52.759Z,98121.03
2023-04-28T00:52:21.727Z,98116.25
2023-04-28T00:54:48.515Z,98117.63
2023-04-28T00:57:16.666Z,98108.91
2023-04-28T00:59:43.126Z,98112.13
2023-04-28T01:02:09.992Z,98106.75
2023-04-28T01:04:44.096Z,98102.72
2023-04-28T01:07:12.293Z,98111.81
2023-04-28T01:09:38.757Z,98101.75
2023-04-28T01:12:05.835Z,98094.03
2023-04-28T01:14:34.738Z,98091.72
2023-04-28T01:17:01.360Z,98088.84
2023-04-28T01:19:29.722Z,98089.50
2023-04-28T01:21:59.833Z,98089.06
2023-04-28T01:27:07.371Z,98085.84
2023-04-28T01:29:36.697Z,98091.69
2023-04-28T01:32:08.861Z,98094.97
2023-04-28T01:34:36.834Z,98087.44
2023-04-28T01:37:05.260Z,98078.41
2023-04-28T01:42:14.524Z,98068.91
2023-04-28T01:44:41.712Z,98071.00
2023-04-28T01:47:19.532Z,98069.66
2023-04-28T01:49:50.765Z,98073.22
2023-04-28T01:52:20.729Z,98062.88
2023-04-28T01:54:47.524Z,98059.59
2023-04-28T01:57:17.558Z,98056.25
2023-04-28T01:59:46.131Z,98054.72
2023-04-28T02:02:14.498Z,98054.34
2023-04-28T02:04:42.938Z,98045.22
2023-04-28T02:07:11.393Z,98046.56
2023-04-28T02:09:41.641Z,98038.50
2023-04-28T02:12:09.373Z,98037.69
2023-04-28T02:14:35.849Z,98031.03
2023-04-28T02:17:05.463Z,98023.09
2023-04-28T02:19:32.604Z,98021.41
2023-04-28T02:22:00.543Z,98015.88
2023-04-28T02:24:27.606Z,98020.94
2023-04-28T02:26:54.845Z,98013.59
2023-04-28T02:29:22.609Z,98008.38
2023-04-28T02:31:50.266Z,98005.94
2023-04-28T02:34:17.164Z,98007.56
2023-04-28T02:36:44.884Z,98007.25
2023-04-28T02:39:15.945Z,97995.97
2023-04-28T02:41:44.065Z,98001.50
2023-04-28T02:44:17.514Z,97999.78
2023-04-28T02:46:46.759Z,97995.97
2023-04-28T02:49:14.844Z,98003.00
2023-04-28T02:51:42.334Z,97996.72
2023-04-28T02:54:10.680Z,97987.13
2023-04-28T02:56:41.337Z,97993.91
2023-04-28T02:59:08.041Z,98000.69
2023-04-28T03:01:37.324Z,97989.66
2023-04-28T03:04:06.126Z,97994.50
2023-04-28T03:06:33.342Z,97980.38
2023-04-28T03:09:00.120Z,97978.63
2023-04-28T03:11:29.562Z,97978.72
2023-04-28T03:13:56.107Z,97976.41
2023-04-28T03:16:22.852Z,97976.13
2023-04-28T03:18:50.452Z,97962.81
2023-04-28T03:21:17.343Z,97966.38
2023-04-28T03:23:46.683Z,97967.69
2023-04-28T03:26:16.674Z,97963.44
2023-04-28T03:28:43.530Z,97962.50
2023-04-28T03:31:10.069Z,97952.94
2023-04-28T03:33:36.854Z,97957.44
2023-04-28T03:36:05.884Z,97953.34
2023-04-28T03:38:32.385Z,97945.28
2023-04-28T03:41:03.737Z,97947.75
2023-04-28T03:43:30.345Z,97939.34
2023-04-28T03:45:59.109Z,97934.72
2023-04-28T03:48:27.291Z,97937.19
2023-04-28T03:50:58.558Z,97928.44
2023-04-28T03:53:26.645Z,97933.78
2023-04-28T03:56:01.811Z,97936.00
2023-04-28T03:58:29.904Z,97933.16
2023-04-28T04:00:57.738Z,97935.53
2023-04-28T04:03:26.531Z,97931.72
2023-04-28T04:05:56.030Z,97942.09
2023-04-28T04:08:23.592Z,97930.38
2023-04-28T04:10:53.882Z,97933.00
2023-04-28T04:13:21.141Z,97932.00
2023-04-28T04:15:50.896Z,97930.25
2023-04-28T04:18:17.738Z,97930.34
2023-04-28T04:20:50.155Z,97921.94
2023-04-28T04:23:20.033Z,97919.59
2023-04-28T04:25:56.104Z,97920.59
2023-04-28T04:28:30.593Z,97922.63
2023-04-28T04:31:01.148Z,97920.56
2023-04-28T04:33:28.193Z,97919.66
2023-04-28T04:35:54.970Z,97921.94
2023-04-28T04:38:22.041Z,97918.06
2023-04-28T04:40:49.559Z,97916.44
2023-04-28T04:43:16.359Z,97919.00
2023-04-28T04:45:44.678Z,97922.09
2023-04-28T04:48:11.455Z,97923.84
2023-04-28T04:50:38.967Z,97912.94
2023-04-28T04:53:08.465Z,97916.50
2023-04-28T04:55:36.432Z,97914.66
2023-04-28T04:58:03.672Z,97912.13
2023-04-28T05:00:30.415Z,97919.13
2023-04-28T05:02:58.781Z,97914.75
2023-04-28T05:05:31.905Z,97903.25
2023-04-28T05:07:58.514Z,97900.00
2023-04-28T05:10:27.470Z,97899.16
2023-04-28T05:12:54.430Z,97897.41
2023-04-28T05:15:23.437Z,97899.69
2023-04-28T05:17:50.992Z,97901.31
2023-04-28T05:20:18.343Z,97899.16
2023-04-28T05:22:46.657Z,97881.34
2023-04-28T05:25:17.699Z,97889.53
2023-04-28T05:27:46.363Z,97895.84
2023-04-28T05:30:15.758Z,97889.78
2023-04-28T05:32:42.605Z,97889.88
2023-04-28T05:35:10.247Z,97896.25
2023-04-28T05:37:38.436Z,97894.53
2023-04-28T05:40:08.674Z,97878.75
2023-04-28T05:42:35.022Z,97878.03
2023-04-28T05:45:01.567Z,97868.47
2023-04-28T05:47:31.494Z,97869.63
2023-04-28T05:50:00.545Z,97858.41
2023-04-28T05:52:29.391Z,97855.75
2023-04-28T05:54:56.459Z,97858.50
2023-04-28T05:57:26.762Z,97869.50
2023-04-28T05:59:53.551Z,97869.34
2023-04-28T06:02:22.676Z,97862.88
2023-04-28T06:05:54.475Z,97871.41
2023-04-28T06:08:21.151Z,97873.00
2023-04-28T06:10:48.794Z,97871.75
2023-04-28T06:13:15.614Z,97872.41
2023-04-28T06:15:44.895Z,97873.28
2023-04-28T06:18:13.558Z,97870.59
2023-04-28T06:20:41.827Z,97865.03
2023-04-28T06:23:10.915Z,97870.50
2023-04-28T06:25:37.586Z,97862.78
2023-04-28T06:28:05.184Z,97867.44
2023-04-28T06:30:34.388Z,97871.47
2023-04-28T06:33:01.988Z,97874.97
2023-04-28T06:35:28.579Z,97869.91
2023-04-28T06:38:00.231Z,97870.25
2023-04-28T06:40:28.034Z,97860.31
2023-04-28T06:42:56.529Z,97857.56
2023-04-28T06:45:25.722Z,97860.53
2023-04-28T06:47:59.672Z,97856.97
2023-04-28T06:50:26.382Z,97855.00
2023-04-28T06:52:54.332Z,97858.22
2023-04-28T06:55:24.129Z,97857.84
2023-04-28T06:57:52.134Z,97857.13
2023-04-28T07:00:19.744Z,97856.34
2023-04-28T07:03:32.900Z,97849.63
2023-04-28T07:06:01.196Z,97853.16
2023-04-28T07:08:31.844Z,97841.88
2023-04-28T07:11:00.262Z,97850.00
2023-04-28T07:13:30.185Z,97842.22
2023-04-28T07:15:57.341Z,97841.03
2023-04-28T07:18:24.689Z,97829.38
2023-04-28T07:20:54.268Z,97831.28
2023-04-28T07:23:21.753Z,97828.59
2023-04-28T07:25:55.235Z,97826.25
2023-04-28T07:28:22.825Z,97819.94
2023-04-28T07:30:49.867Z,97811.41
2023-04-28T07:33:16.595Z,97821.78
2023-04-28T07:35:51.294Z,97814.31
2023-04-28T07:38:21.454Z,97827.88
2023-04-28T07:40:48.367Z,97825.28
2023-04-28T07:43:15.727Z,97834.53
2023-04-28T07:45:49.662Z,97840.72
2023-04-28T07:48:17.297Z,97834.44
2023-04-28T07:50:45.132Z,97831.28
2023-04-28T07:53:14.027Z,97826.63
2023-04-28T07:55:43.371Z,97827.72
2023-04-28T07:58:10.888Z,97831.38
2023-04-28T08:00:44.578Z,97822.34
2023-04-28T08:03:14.835Z,97817.88
2023-04-28T08:05:42.296Z,97814.66
2023-04-28T08:08:14.281Z,97812.41
2023-04-28T08:10:42.166Z,97811.97
2023-04-28T08:13:08.790Z,97811.00
2023-04-28T08:19:21.128Z,97825.19
2023-04-28T08:21:52.156Z,97819.13
2023-04-28T08:24:20.297Z,97819.19
2023-04-28T08:26:50.844Z,97819.28
2023-04-28T08:29:18.353Z,97821.59
2023-04-28T08:31:44.867Z,97821.00
2023-04-28T08:34:13.105Z,97819.41
2023-04-28T08:36:43.513Z,97814.94
2023-04-28T08:39:15.616Z,97814.13
2023-04-28T08:41:44.895Z,97818.22
2023-04-28T08:44:13.007Z,97816.63
2023-04-28T08:46:49.943Z,97820.19
2023-04-28T08:49:19.334Z,97808.50
2023-04-28T08:52:13.849Z,97803.31
2023-04-28T08:54:43.057Z,97797.09
2023-04-28T08:57:13.401Z,97800.03
2023-04-28T08:59:45.558Z,97799.28
2023-04-28T09:02:20.475Z,97796.06
2023-04-28T09:04:55.366Z,97801.97
2023-04-28T09:07:23.548Z,97792.94
2023-04-28T09:09:56.079Z,97795.78
2023-04-28T09:12:25.156Z,97789.47
2023-04-28T09:14:51.709Z,97786.59
2023-04-28T09:17:20.663Z,97784.09
2023-04-28T09:19:49.917Z,97777.50
2023-04-28T09:22:26.046Z,97775.69
2023-04-28T09:24:54.759Z,97778.78
2023-04-28T09:27:28.495Z,97777.88
2023-04-28T09:29:56.518Z,97786.06
2023-04-28T09:32:29.102Z,97776.53
2023-04-28T09:35:06.354Z,97773.94
2023-04-28T09:37:39.090Z,97778.53
2023-04-28T09:40:12.286Z,97779.81
2023-04-28T09:42:47.964Z,97782.53
2023-04-28T09:45:16.440Z,97792.47
2023-04-28T09:47:51.348Z,97788.91
2023-04-28T09:50:18.515Z,97782.13
2023-04-28T09:52:49.477Z,97784.53
2023-04-28T09:55:21.576Z,97788.06
2023-04-28T09:57:50.045Z,97789.50
2023-04-28T10:00:18.821Z,97786.59
2023-04-28T10:02:46.063Z,97784.63
2023-04-28T10:05:21.299Z,97785.75
2023-04-28T10:07:49.529Z,97786.44
2023-04-28T10:10:24.508Z,97785.16
2023-04-28T10:12:52.218Z,97772.03
2023-04-28T10:15:18.971Z,97783.81
2023-04-28T10:17:48.202Z,97769.81
2023-04-28T10:24:09.204Z,97766.19
2023-04-28T10:26:59.703Z,97766.44
2023-04-28T10:29:35.188Z,97758.16
2023-04-28T10:32:21.863Z,97745.78
2023-04-28T10:34:50.186Z,97749.00
2023-04-28T10:37:20.720Z,97750.25
2023-04-28T10:40:26.525Z,97746.41
2023-04-28T10:42:57.189Z,97754.38
2023-04-28T10:46:00.953Z,97749.38
2023-04-28T10:48:37.186Z,97742.94
2023-04-28T10:51:03.834Z,97739.91
2023-04-28T10:53:50.600Z,97736.31
2023-04-28T10:56:27.503Z,97736.88
2023-04-28T10:59:01.762Z,97730.50
2023-04-28T11:01:30.997Z,97723.41
2023-04-28T11:04:09.002Z,97730.28
2023-04-28T11:06:44.925Z,97733.06
2023-04-28T11:09:14.994Z,97724.91
2023-04-28T11:12:02.402Z,97719.53
2023-04-28T11:14:35.069Z,97727.31
2023-04-28T11:17:18.802Z,97715.47
2023-04-28T11:19:48.959Z,97720.91
2023-04-28T11:22:19.404Z,97723.66
2023-04-28T11:25:06.056Z,97731.94
2023-04-28T11:27:33.556Z,97738.97
2023-04-28T11:30:02.131Z,97737.50
2023-04-28T11:32:35.582Z,97734.94
2023-04-28T11:35:27.052Z,97737.13
2023-04-28T11:38:12.915Z,97731.25
2023-04-28T11:40:41.853Z,97732.31
2023-04-28T11:43:46.885Z,97731.25
2023-04-28T11:46:18.629Z,97732.16
2023-04-28T11:48:46.817Z,97729.91
2023-04-28T11:51:33.456Z,97718.53
2023-04-28T11:54:04.294Z,97723.03
2023-04-28T11:56:40.788Z,97720.69
2023-04-28T11:59:12.848Z,97715.19
2023-04-28T12:01:49.567Z,97708.47
2023-04-28T12:04:36.778Z,97713.13
2023-04-28T12:07:07.364Z,97700.84
2023-04-28T12:09:36.901Z,97705.25
2023-04-28T12:12:11.767Z,97701.44
2023-04-28T12:14:54.937Z,97706.31
2023-04-28T12:17:44.463Z,97697.59
2023-04-28T12:20:38.180Z,97696.84
2023-04-28T12:23:16.313Z,97700.19
2023-04-28T12:25:47.842Z,97705.75
2023-04-28T12:28:15.291Z,97699.34
2023-04-28T12:30:42.645Z,97695.47
2023-04-28T12:33:26.531Z,97685.44
2023-04-28T12:36:00.489Z,97688.38
2023-04-28T12:38:28.670Z,97683.53
2023-04-28T12:41:01.735Z,97687.97
2023-04-28T12:43:30.438Z,97685.00
2023-04-28T12:46:19.467Z,97690.69
2023-04-28T12:48:46.218Z,97667.75
2023-04-28T12:51:19.804Z,97674.91
2023-04-28T12:53:52.196Z,97687.75
2023-04-28T12:56:18.701Z,97675.78
2023-04-28T12:58:47.593Z,97677.28
2023-04-28T13:01:17.020Z,97679.56
2023-04-28T13:03:45.466Z,97682.06
2023-04-28T13:06:16.256Z,97670.19
2023-04-28T13:08:44.804Z,97676.28
2023-04-28T13:11:21.821Z,97684.38
2023-04-28T13:13:49.282Z,97675.22
2023-04-28T13:16:15.825Z,97678.41
2023-04-28T13:18:42.595Z,97670.41
2023-04-28T13:21:09.730Z,97682.78
2023-04-28T13:23:38.869Z,97673.56
2023-04-28T13:26:07.850Z,97686.63
2023-04-28T13:28:35.048Z,97673.38
2023-04-28T13:31:01.521Z,97672.59
2023-04-28T13:36:12.818Z,97667.09
2023-04-28T13:38:40.709Z,97663.22
2023-04-28T13:41:09.666Z,97650.44
2023-04-28T13:43:38.272Z,97657.25
2023-04-28T13:46:08.307Z,97653.66
2023-04-28T13:48:36.797Z,97654.03
2023-04-28T13:51:03.989Z,97654.00
2023-04-28T13:53:32.093Z,97648.34
2023-04-28T13:55:59.029Z,97653.47
2023-04-28T13:58:27.711Z,97647.50
2023-04-28T14:00:56.984Z,97646.28
2023-04-28T14:03:24.421Z,97649.91
2023-04-28T14:05:55.374Z,97640.75
2023-04-28T14:08:22.960Z,97639.56
2023-04-28T14:10:50.004Z,97645.53
2023-04-28T14:13:16.467Z,97637.53
2023-04-28T14:15:51.195Z,97639.97
2023-04-28T14:18:22.543Z,97640.84
2023-04-28T14:20:49.647Z,97626.09
2023-04-28T14:23:16.671Z,97633.22
2023-04-28T14:25:46.553Z,97630.47
2023-04-28T14:28:13.013Z,97627.28
2023-04-28T14:30:39.529Z,97620.88
2023-04-28T14:33:06.815Z,97616.13
2023-04-28T14:35:34.599Z,97612.13
2023-04-28T14:38:01.279Z,97625.22
2023-04-28T14:40:27.783Z,97624.81
2023-04-28T14:42:54.771Z,97624.03
2023-04-28T14:45:22.031Z,97612.13
2023-04-28T14:47:49.197Z,97613.66
2023-04-28T14:50:15.947Z,97610.91
2023-04-28T14:52:44.098Z,97608.06
2023-04-28T14:55:10.905Z,97608.88
2023-04-28T14:57:37.969Z,97609.66
2023-04-28T15:00:06.518Z,97603.22
2023-04-28T15:02:35.065Z,97603.25
2023-04-28T15:05:01.666Z,97602.38
2023-04-28T15:07:31.344Z,97595.16
2023-04-28T15:10:04.255Z,97605.59
2023-04-28T15:12:31.879Z,97601.69
2023-04-28T15:14:58.853Z,97593.31
2023-04-28T15:17:26.517Z,97592.13
2023-04-28T15:19:53.147Z,97592.09
2023-04-28T15:22:22.439Z,97589.31
2023-04-28T15:24:52.713Z,97588.53
2023-04-28T15:27:21.320Z,97589.72
2023-04-28T15:32:31.564Z,97588.88
2023-04-28T15:35:00.658Z,97588.06
2023-04-28T15:37:44.833Z,97594.38
2023-04-28T15:40:14.889Z,97588.00
2023-04-28T15:42:53.138Z,97592.78
2023-04-28T15:45:21.906Z,97590.75
2023-04-28T15:47:55.151Z,97591.16
2023-04-28T15:50:26.587Z,97588.34
2023-04-28T15:52:55.601Z,97581.97
2023-04-28T15:55:25.145Z,97590.31
2023-04-28T15:57:54.299Z,97596.72
2023-04-28T16:00:20.834Z,97597.03
2023-04-28T16:02:47.490Z,97595.81
2023-04-28T16:05:15.255Z,97596.63
2023-04-28T16:07:41.748Z,97594.16
2023-04-28T16:10:12.719Z,97592.16
2023-04-28T16:12:40.705Z,97588.53
2023-04-28T16:15:08.653Z,97578.25
2023-04-28T16:17:36.017Z,97570.03
2023-04-28T16:20:05.315Z,97579.25
2023-04-28T16:22:33.861Z,97577.16
2023-04-28T16:25:06.498Z,97587.16
2023-04-28T16:27:33.281Z,97582.38
2023-04-28T16:30:00.171Z,97578.75
2023-04-28T16:32:26.851Z,97587.47
2023-04-28T16:34:53.414Z,97579.91
2023-04-28T16:37:19.912Z,97589.81
2023-04-28T16:39:48.304Z,97586.19
2023-04-28T16:42:15.707Z,97585.41
2023-04-28T16:44:42.404Z,97579.00
2023-04-28T16:47:13.766Z,97578.63
2023-04-28T16:49:40.244Z,97575.03
2023-04-28T16:52:08.878Z,97567.06
2023-04-28T16:54:35.587Z,97560.72
2023-04-28T16:57:04.053Z,97564.69
2023-04-28T16:59:31.034Z,97565.06
2023-04-28T17:02:01.527Z,97565.47
2023-04-28T17:04:28.183Z,97567.09
2023-04-28T17:06:55.081Z,97564.75
2023-04-28T17:09:21.730Z,97557.09
2023-04-28T17:11:48.781Z,97561.88
2023-04-28T17:14:15.439Z,97559.91
2023-04-28T17:16:43.673Z,97554.72
2023-04-28T17:19:11.072Z,97557.53
2023-04-28T17:21:37.638Z,97545.97
2023-04-28T17:24:04.309Z,97545.22
2023-04-28T17:26:31.008Z,97550.75
2023-04-28T17:28:58.284Z,97555.19
2023-04-28T17:31:26.043Z,97539.25
2023-04-28T17:33:53.011Z,97551.22
2023-04-28T17:36:19.812Z,97546.44
2023-04-28T17:38:46.442Z,97552.34
2023-04-28T17:41:13.333Z,97546.78
2023-04-28T17:43:39.890Z,97547.22
2023-04-28T17:46:06.726Z,97547.63
2023-04-28T17:48:34.254Z,97544.00
2023-04-28T17:51:01.021Z,97552.78
2023-04-28T17:53:27.489Z,97550.38
2023-04-28T17:55:53.977Z,97544.00
2023-04-28T17:58:20.709Z,97552.78
2023-04-28T18:00:47.193Z,97557.09
2023-04-28T18:03:13.779Z,97557.13
2023-04-28T18:05:40.335Z,97562.66
2023-04-28T18:08:06.880Z,97549.06
2023-04-28T18:10:33.706Z,97579.31
2023-04-28T18:13:00.388Z,97582.53
2023-04-28T18:15:27.252Z,97586.06
2023-04-28T18:17:53.781Z,97587.59
2023-04-28T18:20:20.274Z,97595.94
2023-04-28T18:22:47.092Z,97587.59
2023-04-28T18:25:16.706Z,97582.78
2023-04-28T18:27:43.366Z,97586.41
2023-04-28T18:30:10.171Z,97587.94
2023-04-28T18:32:36.809Z,97588.34
2023-04-28T18:35:03.399Z,97585.72
2023-04-28T18:37:30.043Z,97574.38
2023-04-28T18:39:57.300Z,97591.25
2023-04-28T18:42:24.035Z,97588.56
2023-04-28T18:44:58.135Z,97600.03
2023-04-28T18:47:25.475Z,97593.69
2023-04-28T18:49:52.267Z,97589.41
2023-04-28T18:52:18.781Z,97598.91
2023-04-28T18:54:49.260Z,97606.03
2023-04-28T18:57:16.811Z,97610.75
2023-04-28T18:59:43.267Z,97609.16
2023-04-28T19:02:09.802Z,97610.03
2023-04-28T19:04:39.209Z,97613.28
2023-04-28T19:07:05.844Z,97616.00
2023-04-28T19:09:32.316Z,97612.88
2023-04-28T19:11:58.769Z,97608.44
2023-04-28T19:14:25.419Z,97622.00
2023-04-28T19:16:52.117Z,97625.16
2023-04-28T19:19:19.561Z,97626.81
2023-04-28T19:21:46.071Z,97626.72
2023-04-28T19:24:12.913Z,97635.38
2023-04-28T19:26:39.529Z,97636.56
2023-04-28T19:29:06.048Z,97649.28
2023-04-28T19:31:32.661Z,97638.44
2023-04-28T19:33:59.161Z,97650.66
2023-04-28T19:36:25.720Z,97659.03
2023-04-28T19:38:52.958Z,97658.84
2023-04-28T19:41:20.830Z,97658.94
2023-04-28T19:43:47.515Z,97666.06
2023-04-28T19:46:15.106Z,97666.00
2023-04-28T19:48:41.670Z,97666.34
2023-04-28T19:51:08.295Z,97677.47
2023-04-28T19:53:38.833Z,97669.03
2023-04-28T19:56:05.662Z,97677.88
2023-04-28T19:58:33.391Z,97670.66
2023-04-28T20:00:59.864Z,97679.72
2023-04-28T20:03:26.621Z,97681.75
2023-04-28T20:05:53.356Z,97677.44
2023-04-28T20:08:20.415Z,97675.94
2023-04-28T20:10:46.986Z,97676.34
2023-04-28T20:13:15.019Z,97669.94
2023-04-28T20:15:42.246Z,97675.31
2023-04-28T20:18:09.066Z,97685.66
2023-04-28T20:20:35.595Z,97679.03
2023-04-28T20:23:02.065Z,97676.56
2023-04-28T20:25:28.905Z,97680.91
2023-04-28T20:27:55.405Z,97676.13
2023-04-28T20:30:21.908Z,97675.00
2023-04-28T20:32:49.369Z,97684.06
2023-04-28T20:35:15.904Z,97668.97
2023-04-28T20:37:42.400Z,97677.72
2023-04-28T20:40:10.408Z,97676.88
2023-04-28T20:42:36.871Z,97673.63
2023-04-28T20:45:04.426Z,97684.72
2023-04-28T20:47:30.932Z,97687.13
2023-04-28T20:49:57.444Z,97687.81
2023-04-28T20:52:23.952Z,97690.22
2023-04-28T20:54:52.066Z,97684.25
2023-04-28T20:57:18.556Z,97689.06
2023-04-28T20:59:45.040Z,97682.63
2023-04-28T21:02:11.955Z,97694.19
2023-04-28T21:04:38.465Z,97685.84
2023-04-28T21:07:05.038Z,97682.81
2023-04-28T21:09:31.522Z,97687.00
2023-04-28T21:11:58.000Z,97693.38
2023-04-28T21:14:24.489Z,97691.84
2023-04-28T21:16:51.052Z,97682.19
2023-04-28T21:19:18.463Z,97689.78
2023-04-28T21:21:45.426Z,97688.56
2023-04-28T21:24:12.525Z,97689.78
2023-04-28T21:26:39.064Z,97689.00
2023-04-28T21:29:05.581Z,97688.13
2023-04-28T21:31:32.373Z,97684.22
2023-04-28T21:33:59.149Z,97695.69
2023-04-28T21:36:25.629Z,97685.34
2023-04-28T21:38:52.256Z,97690.91
2023-04-28T21:41:30.921Z,97689.59
2023-04-28T21:43:57.573Z,97703.97
2023-04-28T21:46:24.106Z,97697.59
2023-04-28T21:48:50.716Z,97700.88
2023-04-28T21:51:17.345Z,97700.41
2023-04-28T21:53:43.799Z,97701.50
2023-04-28T21:56:10.268Z,97699.91
2023-04-28T21:58:37.042Z,97693.97
2023-04-28T22:01:03.728Z,97699.22
2023-04-28T22:03:30.295Z,97695.97
2023-04-28T22:05:57.182Z,97693.97
2023-04-28T22:08:23.905Z,97693.56
2023-04-28T22:10:50.373Z,97700.69
2023-04-28T22:13:16.834Z,97705.91
2023-04-28T22:15:43.436Z,97709.16
2023-04-28T22:18:10.109Z,97709.75
2023-04-28T22:20:36.690Z,97701.78
2023-04-28T22:23:03.486Z,97708.50
2023-04-28T22:25:30.020Z,97706.84
2023-04-28T22:27:56.603Z,97712.78
2023-04-28T22:30:25.815Z,97715.19
2023-04-28T22:32:52.796Z,97716.00
2023-04-28T22:35:19.656Z,97712.78
2023-04-28T22:37:46.144Z,97717.53
2023-04-28T22:40:13.016Z,97708.00
2023-04-28T22:42:40.556Z,97718.69
2023-04-28T22:45:07.564Z,97713.66
2023-04-28T22:47:34.546Z,97711.59
2023-04-28T22:50:03.509Z,97708.47
2023-04-28T22:52:30.010Z,97713.09
2023-04-28T22:54:56.501Z,97709.22
2023-04-28T22:57:22.959Z,97709.19
2023-04-28T22:59:49.692Z,97709.19
2023-04-28T23:02:16.314Z,97699.25
2023-04-28T23:04:43.016Z,97707.22
2023-04-28T23:07:10.126Z,97708.00
2023-04-28T23:09:37.283Z,97706.06
2023-04-28T23:12:04.109Z,97692.13
2023-04-28T23:14:33.796Z,97705.13
2023-04-28T23:17:00.281Z,97698.66
2023-04-28T23:19:26.794Z,97698.97
2023-04-28T23:21:54.412Z,97695.84
2023-04-28T23:24:21.569Z,97691.44
2023-04-28T23:26:48.038Z,97702.72
2023-04-28T23:29:14.752Z,97701.91
2023-04-28T23:31:41.294Z,97703.50
2023-04-28T23:34:07.799Z,97708.53
2023-04-28T23:36:34.589Z,97709.28
2023-04-28T23:39:01.570Z,97698.41
2023-04-28T23:41:28.479Z,97709.72
2023-04-28T23:43:55.034Z,97713.66
2023-04-28T23:46:21.960Z,97707.59
2023-04-28T23:48:48.443Z,97716.28
2023-04-28T23:51:15.220Z,97708.78
2023-04-28T23:53:42.091Z,97703.19
2023-04-28T23:56:08.559Z,97713.50
2023-04-28T23:58:35.110Z,97708.41
